createdAt,value
2018-09-21T00:01:47.252Z,100431.36
2018-09-21T00:04:16.131Z,100421.66
2018-09-21T00:06:45.009Z,100419.63
2018-09-21T00:09:14.212Z,100421.63
2018-09-21T00:11:43.081Z,100415.16
2018-09-21T00:14:12.059Z,100408.64
2018-09-21T00:16:40.972Z,100402.48
2018-09-21T00:19:09.890Z,100405.30
2018-09-21T00:21:39.191Z,100402.27
2018-09-21T00:24:08.044Z,100399.41
2018-09-21T00:26:36.947Z,100405.50
2018-09-21T00:29:05.847Z,100398.34
2018-09-21T00:31:34.719Z,100399.44
2018-09-21T00:34:03.814Z,100384.26
2018-09-21T00:36:32.679Z,100383.83
2018-09-21T00:39:01.681Z,100381.05
2018-09-21T00:41:30.591Z,100374.52
2018-09-21T00:43:59.480Z,100367.50
2018-09-21T00:46:28.383Z,100369.05
2018-09-21T00:48:57.288Z,100363.30
2018-09-21T00:51:26.170Z,100361.84
2018-09-21T00:53:56.075Z,100360.83
2018-09-21T00:56:29.046Z,100352.16
2018-09-21T00:59:15.189Z,100350.92
2018-09-21T01:01:44.151Z,100362.06
2018-09-21T01:04:13.230Z,100357.53
2018-09-21T01:06:42.093Z,100359.71
2018-09-21T01:09:11.919Z,100357.42
2018-09-21T01:11:40.956Z,100349.17
2018-09-21T01:14:09.864Z,100353.56
2018-09-21T01:16:38.745Z,100350.05
2018-09-21T01:19:07.660Z,100335.13
2018-09-21T01:21:36.539Z,100348.58
2018-09-21T01:24:05.450Z,100340.62
2018-09-21T01:26:34.393Z,100350.19
2018-09-21T01:29:03.249Z,100337.37
2018-09-21T01:31:32.138Z,100328.19
2018-09-21T01:34:01.044Z,100329.80
2018-09-21T01:36:30.243Z,100321.14
2018-09-21T01:38:59.123Z,100321.58
2018-09-21T01:41:28.057Z,100323.19
2018-09-21T01:43:56.961Z,100325.21
2018-09-21T01:46:25.864Z,100309.72
2018-09-21T01:48:54.779Z,100312.73
2018-09-21T01:51:23.799Z,100309.66
2018-09-21T01:53:52.713Z,100313.11
2018-09-21T01:56:21.669Z,100308.30
2018-09-21T01:58:50.874Z,100300.85
2018-09-21T02:01:19.844Z,100293.28
2018-09-21T02:03:48.738Z,100288.52
2018-09-21T02:06:17.637Z,100283.81
2018-09-21T02:08:46.801Z,100281.43
2018-09-21T02:11:15.797Z,100269.06
2018-09-21T02:13:44.751Z,100266.92
2018-09-21T02:16:13.699Z,100268.03
2018-09-21T02:18:42.795Z,100273.03
2018-09-21T02:21:11.812Z,100270.77
2018-09-21T02:23:40.720Z,100271.37
2018-09-21T02:26:09.741Z,100264.11
2018-09-21T02:28:38.702Z,100264.67
2018-09-21T02:31:07.686Z,100246.53
2018-09-21T02:33:36.596Z,100244.49
2018-09-21T02:36:05.813Z,100242.45
2018-09-21T02:38:34.723Z,100244.24
2018-09-21T02:41:03.685Z,100235.52
2018-09-21T02:43:32.606Z,100235.13
2018-09-21T02:46:01.499Z,100222.70
2018-09-21T02:48:30.420Z,100214.44
2018-09-21T02:50:59.363Z,100210.03
2018-09-21T02:53:28.279Z,100207.83
2018-09-21T02:55:57.132Z,100201.12
2018-09-21T02:58:26.070Z,100195.64
2018-09-21T03:00:55.093Z,100198.28
2018-09-21T03:03:24.017Z,100189.94
2018-09-21T03:05:52.988Z,100189.45
2018-09-21T03:08:21.879Z,100183.53
2018-09-21T03:10:50.933Z,100181.94
2018-09-21T03:13:19.971Z,100171.22
2018-09-21T03:15:48.832Z,100172.22
2018-09-21T03:18:17.777Z,100168.23
2018-09-21T03:20:46.723Z,100159.23
2018-09-21T03:23:15.635Z,100163.38
2018-09-21T03:25:44.759Z,100159.94
2018-09-21T03:28:13.674Z,100160.55
2018-09-21T03:30:42.590Z,100156.68
2018-09-21T03:33:11.562Z,100151.12
2018-09-21T03:35:40.512Z,100147.70
2018-09-21T03:38:09.517Z,100142.63
2018-09-21T03:40:38.363Z,100136.34
2018-09-21T03:43:08.172Z,100124.00
2018-09-21T03:45:37.071Z,100121.79
2018-09-21T03:48:06.013Z,100114.52
2018-09-21T03:50:35.055Z,100111.09
2018-09-21T03:53:03.995Z,100099.41
2018-09-21T03:55:33.130Z,100102.32
2018-09-21T03:58:02.175Z,100102.72
2018-09-21T04:00:31.065Z,100097.13
2018-09-21T04:02:59.979Z,100087.13
2018-09-21T04:05:28.852Z,100081.20
2018-09-21T04:07:57.767Z,100084.86
2018-09-21T04:10:26.690Z,100072.58
2018-09-21T04:12:55.610Z,100067.84
2018-09-21T04:15:24.527Z,100065.00
2018-09-21T04:17:53.743Z,100050.45
2018-09-21T04:20:22.632Z,100047.02
2018-09-21T04:22:57.719Z,100042.80
2018-09-21T04:25:26.583Z,100035.71
2018-09-21T04:27:55.508Z,100037.91
2018-09-21T04:30:24.774Z,100031.17
2018-09-21T04:32:53.667Z,100030.39
2018-09-21T04:35:22.559Z,100023.98
2018-09-21T04:37:51.877Z,100015.84
2018-09-21T04:40:20.919Z,100001.97
2018-09-21T04:42:50.123Z,99999.02
2018-09-21T04:45:19.249Z,99988.28
2018-09-21T04:47:48.138Z,99978.44
2018-09-21T04:50:17.038Z,99980.30
2018-09-21T04:52:45.976Z,99979.09
2018-09-21T04:55:14.872Z,99982.52
2018-09-21T04:57:43.858Z,99982.28
2018-09-21T05:00:12.726Z,99979.99
2018-09-21T05:02:41.575Z,99975.61
2018-09-21T05:05:10.509Z,99966.10
2018-09-21T05:07:39.407Z,99967.69
2018-09-21T05:10:08.352Z,99952.81
2018-09-21T05:12:37.258Z,99947.13
2018-09-21T05:15:06.691Z,99939.22
2018-09-21T05:17:35.636Z,99929.05
2018-09-21T05:20:04.544Z,99923.31
2018-09-21T05:22:33.551Z,99917.34
2018-09-21T05:25:02.405Z,99908.30
2018-09-21T05:27:31.360Z,99912.02
2018-09-21T05:30:00.220Z,99902.98
2018-09-21T05:32:29.190Z,99894.95
2018-09-21T05:34:58.075Z,99890.62
2018-09-21T05:37:27.011Z,99886.00
2018-09-21T05:39:55.965Z,99880.43
2018-09-21T05:42:25.118Z,99877.78
2018-09-21T05:44:53.966Z,99879.18
2018-09-21T05:47:22.843Z,99871.03
2018-09-21T05:49:51.916Z,99869.70
2018-09-21T05:52:20.821Z,99878.86
2018-09-21T05:54:49.718Z,99870.83
2018-09-21T05:57:18.626Z,99875.73
2018-09-21T05:59:47.506Z,99862.88
2018-09-21T06:02:16.566Z,99859.84
2018-09-21T06:04:45.319Z,99852.08
2018-09-21T06:07:14.203Z,99844.42
2018-09-21T06:09:43.111Z,99837.23
2018-09-21T06:12:12.108Z,99836.22
2018-09-21T06:14:40.959Z,99824.55
2018-09-21T06:17:09.977Z,99823.70
2018-09-21T06:19:45.454Z,99815.93
2018-09-21T06:22:14.383Z,99802.70
2018-09-21T06:24:43.282Z,99807.84
2018-09-21T06:27:12.339Z,99803.44
2018-09-21T06:29:41.228Z,99803.39
2018-09-21T06:32:10.158Z,99790.25
2018-09-21T06:34:39.060Z,99783.04
2018-09-21T06:37:07.922Z,99787.57
2018-09-21T06:39:36.818Z,99794.52
2018-09-21T06:42:05.711Z,99782.41
2018-09-21T06:44:34.678Z,99781.45
2018-09-21T06:47:03.617Z,99780.16
2018-09-21T06:49:32.571Z,99766.73
2018-09-21T06:52:01.473Z,99769.83
2018-09-21T06:54:30.467Z,99758.81
2018-09-21T06:56:59.461Z,99759.69
2018-09-21T06:59:28.354Z,99744.19
2018-09-21T07:01:57.591Z,99739.20
2018-09-21T07:04:26.470Z,99750.39
2018-09-21T07:06:55.411Z,99750.81
2018-09-21T07:09:24.410Z,99728.50
2018-09-21T07:11:53.393Z,99724.80
2018-09-21T07:14:22.431Z,99730.92
2018-09-21T07:16:51.329Z,99732.58
2018-09-21T07:19:20.222Z,99705.84
2018-09-21T07:21:49.144Z,99726.06
2018-09-21T07:24:18.088Z,99727.59
2018-09-21T07:26:46.935Z,99713.40
2018-09-21T07:29:15.864Z,99714.45
2018-09-21T07:31:44.784Z,99713.28
2018-09-21T07:34:13.680Z,99725.75
2018-09-21T07:36:42.598Z,99710.56
2018-09-21T07:39:11.853Z,99711.91
2018-09-21T07:41:40.734Z,99721.11
2018-09-21T07:44:09.652Z,99716.56
2018-09-21T07:46:38.609Z,99715.67
2018-09-21T07:49:07.529Z,99715.67
2018-09-21T07:51:36.481Z,99718.97
2018-09-21T07:54:05.410Z,99715.09
2018-09-21T07:56:34.290Z,99706.33
2018-09-21T07:59:03.289Z,99705.44
2018-09-21T08:01:32.322Z,99708.95
2018-09-21T08:04:01.439Z,99702.91
2018-09-21T08:06:30.343Z,99708.50
2018-09-21T08:08:59.271Z,99689.59
2018-09-21T08:11:28.295Z,99694.38
2018-09-21T08:13:57.319Z,99701.34
2018-09-21T08:16:26.213Z,99697.55
2018-09-21T08:18:55.131Z,99702.47
2018-09-21T08:21:24.004Z,99690.48
2018-09-21T08:23:53.038Z,99695.98
2018-09-21T08:26:22.004Z,99704.17
2018-09-21T08:28:51.136Z,99698.02
2018-09-21T08:31:20.202Z,99690.16
2018-09-21T08:33:49.286Z,99688.05
2018-09-21T08:36:18.354Z,99692.44
2018-09-21T08:38:47.329Z,99690.70
2018-09-21T08:41:16.250Z,99686.83
2018-09-21T08:43:45.272Z,99680.44
2018-09-21T08:46:14.940Z,99693.41
2018-09-21T08:48:44.198Z,99695.47
2018-09-21T08:51:13.254Z,99688.00
2018-09-21T08:53:42.195Z,99693.55
2018-09-21T08:56:11.677Z,99689.37
2018-09-21T08:58:40.697Z,99677.14
2018-09-21T09:01:09.714Z,99687.81
2018-09-21T09:03:38.645Z,99682.41
2018-09-21T09:06:07.689Z,99671.53
2018-09-21T09:08:36.564Z,99685.02
2018-09-21T09:11:05.581Z,99681.17
2018-09-21T09:13:34.430Z,99677.73
2018-09-21T09:16:03.401Z,99666.27
2018-09-21T09:18:32.352Z,99668.70
2018-09-21T09:21:01.248Z,99677.36
2018-09-21T09:23:30.103Z,99669.60
2018-09-21T09:25:58.991Z,99681.53
2018-09-21T09:28:28.082Z,99675.92
2018-09-21T09:30:57.064Z,99671.81
2018-09-21T09:33:25.962Z,99660.67
2018-09-21T09:35:54.893Z,99665.25
2018-09-21T09:38:23.784Z,99666.45
2018-09-21T09:40:52.827Z,99662.17
2018-09-21T09:43:21.798Z,99679.83
2018-09-21T09:45:50.787Z,99653.68
2018-09-21T09:48:19.857Z,99660.75
2018-09-21T09:50:48.856Z,99672.19
2018-09-21T09:53:17.730Z,99666.23
2018-09-21T09:55:46.656Z,99663.92
2018-09-21T09:58:15.582Z,99658.53
2018-09-21T10:00:50.017Z,99648.53
2018-09-21T10:03:19.032Z,99665.08
2018-09-21T10:05:47.925Z,99649.88
2018-09-21T10:08:16.808Z,99641.57
2018-09-21T10:10:45.798Z,99636.14
2018-09-21T10:13:14.895Z,99615.88
2018-09-21T10:15:43.805Z,99622.84
2018-09-21T10:18:12.690Z,99616.84
2018-09-21T10:20:41.613Z,99609.80
2018-09-21T10:23:10.462Z,99608.23
2018-09-21T10:25:39.389Z,99601.77
2018-09-21T10:28:08.507Z,99596.91
2018-09-21T10:30:37.266Z,99600.97
2018-09-21T10:33:06.228Z,99584.02
2018-09-21T10:35:35.198Z,99580.09
2018-09-21T10:38:04.141Z,99566.05
2018-09-21T10:40:33.127Z,99560.89
2018-09-21T10:43:02.078Z,99547.22
2018-09-21T10:45:31.125Z,99554.64
2018-09-21T10:48:00.011Z,99541.62
2018-09-21T10:50:29.910Z,99547.92
2018-09-21T10:52:58.870Z,99544.69
2018-09-21T10:55:27.796Z,99547.35
2018-09-21T10:57:56.688Z,99556.50
2018-09-21T11:00:25.613Z,99531.41
2018-09-21T11:02:54.604Z,99554.36
2018-09-21T11:05:23.825Z,99560.42
2018-09-21T11:07:52.841Z,99561.92
2018-09-21T11:10:21.721Z,99581.55
2018-09-21T11:12:50.607Z,99606.16
2018-09-21T11:15:19.585Z,99625.88
2018-09-21T11:17:48.510Z,99661.29
2018-09-21T11:20:17.438Z,99688.28
2018-09-21T11:22:46.379Z,99719.94
2018-09-21T11:25:15.250Z,99744.25
2018-09-21T11:27:44.183Z,99801.17
2018-09-21T11:30:13.111Z,99808.70
2018-09-21T11:32:41.979Z,99813.82
2018-09-21T11:35:10.891Z,99839.45
2018-09-21T11:37:39.840Z,99869.56
2018-09-21T11:40:08.719Z,99884.23
2018-09-21T11:42:37.747Z,99890.25
2018-09-21T11:45:06.719Z,99890.56
2018-09-21T11:47:35.800Z,99896.51
2018-09-21T11:50:04.635Z,99904.09
2018-09-21T11:52:33.814Z,99919.05
2018-09-21T11:55:02.665Z,99922.20
2018-09-21T11:57:31.796Z,99930.53
2018-09-21T12:00:00.770Z,99919.47
2018-09-21T12:02:29.823Z,99922.70
2018-09-21T12:04:58.949Z,99931.92
2018-09-21T12:07:27.790Z,99933.73
2018-09-21T12:09:56.712Z,99933.20
2018-09-21T12:12:25.597Z,99938.09
2018-09-21T12:14:54.776Z,99928.11
2018-09-21T12:17:23.641Z,99921.66
2018-09-21T12:19:52.631Z,99926.24
2018-09-21T12:22:21.530Z,99917.34
2018-09-21T12:24:50.461Z,99938.63
2018-09-21T12:27:19.361Z,99925.53
2018-09-21T12:29:48.222Z,99935.73
2018-09-21T12:32:17.394Z,99939.48
2018-09-21T12:34:46.252Z,99952.91
2018-09-21T12:37:15.164Z,99955.95
2018-09-21T12:39:44.396Z,99949.77
2018-09-21T12:42:13.342Z,99961.13
2018-09-21T12:44:42.265Z,99976.98
2018-09-21T12:47:11.168Z,99976.54
2018-09-21T12:49:40.148Z,99980.59
2018-09-21T12:52:09.239Z,99972.84
2018-09-21T12:54:38.452Z,99965.97
2018-09-21T12:57:07.313Z,99961.27
2018-09-21T12:59:36.380Z,99967.52
2018-09-21T13:02:05.212Z,99962.80
2018-09-21T13:04:34.339Z,99971.66
2018-09-21T13:07:03.368Z,99956.21
2018-09-21T13:09:32.229Z,99968.25
2018-09-21T13:12:01.159Z,99959.78
2018-09-21T13:14:30.180Z,99954.91
2018-09-21T13:16:59.224Z,99975.69
2018-09-21T13:19:28.078Z,99984.67
2018-09-21T13:21:56.970Z,100014.84
2018-09-21T13:24:25.850Z,100001.73
2018-09-21T13:26:54.773Z,99985.84
2018-09-21T13:29:23.658Z,99990.80
2018-09-21T13:31:52.617Z,99987.11
2018-09-21T13:34:21.621Z,99983.59
2018-09-21T13:36:51.190Z,99999.72
2018-09-21T13:39:20.116Z,99999.97
2018-09-21T13:41:49.146Z,99994.94
2018-09-21T13:44:18.035Z,99988.73
2018-09-21T13:46:46.921Z,99979.63
2018-09-21T13:49:15.830Z,99989.61
2018-09-21T13:51:44.745Z,99995.28
2018-09-21T13:54:13.630Z,100007.11
2018-09-21T13:56:42.576Z,100024.07
2018-09-21T13:59:12.602Z,100014.02
2018-09-21T14:01:41.484Z,100019.59
2018-09-21T14:04:10.339Z,100021.41
2018-09-21T14:06:39.274Z,100038.71
2018-09-21T14:09:09.010Z,100043.56
2018-09-21T14:11:38.068Z,100051.16
2018-09-21T14:14:07.163Z,100054.37
2018-09-21T14:16:36.054Z,100060.50
2018-09-21T14:19:04.944Z,100058.00
2018-09-21T14:21:33.897Z,100047.24
2018-09-21T14:24:02.775Z,100042.38
2018-09-21T14:26:31.690Z,100050.20
2018-09-21T14:29:00.652Z,100050.64
2018-09-21T14:31:29.659Z,100054.47
2018-09-21T14:33:58.633Z,100070.80
2018-09-21T14:36:27.543Z,100064.84
2018-09-21T14:38:56.478Z,100066.12
2018-09-21T14:41:31.708Z,100062.20
2018-09-21T14:44:00.812Z,100054.88
2018-09-21T14:46:29.662Z,100061.88
2018-09-21T14:48:58.573Z,100061.25
2018-09-21T14:51:27.472Z,100055.06
2018-09-21T14:53:56.381Z,100067.44
2018-09-21T14:56:25.365Z,100070.79
2018-09-21T14:58:54.244Z,100067.39
2018-09-21T15:01:23.108Z,100062.64
2018-09-21T15:03:52.002Z,100073.31
2018-09-21T15:06:21.654Z,100066.43
2018-09-21T15:08:50.569Z,100076.49
2018-09-21T15:11:19.440Z,100073.66
2018-09-21T15:13:48.490Z,100076.04
2018-09-21T15:16:17.387Z,100082.66
2018-09-21T15:18:46.996Z,100075.72
2018-09-21T15:21:15.993Z,100071.62
2018-09-21T15:23:44.863Z,100088.50
2018-09-21T15:26:13.756Z,100109.83
2018-09-21T15:28:42.662Z,100123.76
2018-09-21T15:31:11.688Z,100129.89
2018-09-21T15:33:40.616Z,100137.66
2018-09-21T15:36:09.518Z,100141.56
2018-09-21T15:38:38.483Z,100138.80
2018-09-21T15:41:07.447Z,100134.16
2018-09-21T15:43:36.457Z,100123.88
2018-09-21T15:46:05.268Z,100123.75
2018-09-21T15:48:34.184Z,100116.83
2018-09-21T15:51:03.092Z,100118.47
2018-09-21T15:53:31.990Z,100113.38
2018-09-21T15:56:00.977Z,100115.50
2018-09-21T15:58:29.934Z,100117.79
2018-09-21T16:00:58.821Z,100122.99
2018-09-21T16:03:27.784Z,100122.73
2018-09-21T16:05:56.678Z,100113.77
2018-09-21T16:08:26.032Z,100111.20
2018-09-21T16:10:54.912Z,100104.97
2018-09-21T16:13:23.794Z,100115.64
2018-09-21T16:15:52.683Z,100115.23
2018-09-21T16:18:21.594Z,100112.20
2018-09-21T16:20:50.461Z,100124.00
2018-09-21T16:23:19.951Z,100130.71
2018-09-21T16:25:49.953Z,100133.62
2018-09-21T16:28:19.713Z,100128.86
2018-09-21T16:30:49.009Z,100139.63
2018-09-21T16:33:17.895Z,100131.29
2018-09-21T16:35:46.757Z,100141.61
2018-09-21T16:38:15.663Z,100140.25
2018-09-21T16:40:44.660Z,100147.88
2018-09-21T16:43:13.529Z,100148.09
2018-09-21T16:45:42.454Z,100148.03
2018-09-21T16:48:11.493Z,100148.38
2018-09-21T16:50:40.350Z,100146.09
2018-09-21T16:53:09.260Z,100151.80
2018-09-21T16:55:38.194Z,100152.39
2018-09-21T16:58:07.341Z,100160.83
2018-09-21T17:00:36.229Z,100165.29
2018-09-21T17:03:05.207Z,100166.45
2018-09-21T17:05:34.116Z,100170.88
2018-09-21T17:08:02.995Z,100176.47
2018-09-21T17:10:31.890Z,100177.45
2018-09-21T17:13:00.860Z,100185.97
2018-09-21T17:15:29.778Z,100189.62
2018-09-21T17:17:58.695Z,100197.66
2018-09-21T17:20:27.555Z,100196.72
2018-09-21T17:22:56.460Z,100209.11
2018-09-21T17:25:25.391Z,100217.06
2018-09-21T17:27:54.324Z,100221.41
2018-09-21T17:30:23.194Z,100227.74
2018-09-21T17:32:52.096Z,100233.60
2018-09-21T17:35:21.030Z,100240.09
2018-09-21T17:37:49.911Z,100243.41
2018-09-21T17:40:18.832Z,100247.80
2018-09-21T17:42:47.709Z,100250.14
2018-09-21T17:45:16.599Z,100261.88
2018-09-21T17:47:45.803Z,100259.87
2018-09-21T17:50:14.689Z,100270.16
2018-09-21T17:52:43.673Z,100270.70
2018-09-21T17:55:12.585Z,100273.36
2018-09-21T18:00:39.886Z,100287.70
2018-09-21T18:03:08.829Z,100289.69
2018-09-21T18:05:37.978Z,100296.38
2018-09-21T18:08:06.874Z,100300.59
2018-09-21T18:10:35.788Z,100305.92
2018-09-21T18:13:04.740Z,100308.95
2018-09-21T18:15:33.626Z,100318.59
2018-09-21T18:18:02.600Z,100319.22
2018-09-21T18:20:31.621Z,100321.83
2018-09-21T18:23:00.571Z,100326.02
2018-09-21T18:25:29.797Z,100336.92
2018-09-21T18:27:58.690Z,100334.77
2018-09-21T18:30:27.629Z,100342.58
2018-09-21T18:32:56.563Z,100346.41
2018-09-21T18:35:25.748Z,100345.84
2018-09-21T18:37:54.648Z,100353.36
2018-09-21T18:40:23.578Z,100352.31
2018-09-21T18:42:52.503Z,100360.73
2018-09-21T18:45:21.408Z,100362.68
2018-09-21T18:47:50.320Z,100370.83
2018-09-21T18:50:19.266Z,100372.69
2018-09-21T18:52:48.195Z,100384.83
2018-09-21T18:55:17.170Z,100391.66
2018-09-21T18:57:46.060Z,100403.39
2018-09-21T19:00:15.146Z,100420.13
2018-09-21T19:02:44.039Z,100416.56
2018-09-21T19:05:13.055Z,100417.61
2018-09-21T19:07:41.962Z,100417.66
2018-09-21T19:10:10.856Z,100424.14
2018-09-21T19:12:39.904Z,100422.57
2018-09-21T19:15:08.785Z,100424.10
2018-09-21T19:17:37.761Z,100425.55
2018-09-21T19:20:08.537Z,100422.91
2018-09-21T19:22:37.696Z,100423.39
2018-09-21T19:25:06.628Z,100424.01
2018-09-21T19:27:35.675Z,100427.47
2018-09-21T19:30:04.650Z,100423.41
2018-09-21T19:32:33.548Z,100432.93
2018-09-21T19:35:02.501Z,100437.78
2018-09-21T19:37:31.414Z,100441.81
2018-09-21T19:40:00.326Z,100452.14
2018-09-21T19:42:29.393Z,100465.66
2018-09-21T19:44:58.671Z,100480.53
2018-09-21T19:47:27.524Z,100500.80
2018-09-21T19:49:56.404Z,100508.92
2018-09-21T19:52:25.541Z,100518.94
2018-09-21T19:54:54.560Z,100521.31
2018-09-21T19:57:23.461Z,100518.11
2018-09-21T19:59:52.421Z,100537.22
2018-09-21T20:02:21.374Z,100545.36
2018-09-21T20:04:50.687Z,100529.00
2018-09-21T20:07:19.638Z,100525.27
2018-09-21T20:09:48.555Z,100526.02
2018-09-21T20:12:17.479Z,100525.48
2018-09-21T20:14:46.453Z,100534.05
2018-09-21T20:17:15.371Z,100548.95
2018-09-21T20:19:44.304Z,100537.18
2018-09-21T20:22:13.183Z,100549.34
2018-09-21T20:24:42.133Z,100556.41
2018-09-21T20:27:11.126Z,100562.17
2018-09-21T20:29:40.070Z,100559.00
2018-09-21T20:32:14.326Z,100561.95
2018-09-21T20:34:43.520Z,100556.59
2018-09-21T20:37:12.807Z,100558.69
2018-09-21T20:39:41.496Z,100551.72
2018-09-21T20:42:10.862Z,100564.61
2018-09-21T20:44:40.059Z,100575.36
2018-09-21T20:47:09.342Z,100575.84
2018-09-21T20:49:38.286Z,100578.77
2018-09-21T20:52:07.226Z,100579.78
2018-09-21T20:54:36.117Z,100577.31
2018-09-21T20:57:05.149Z,100576.33
2018-09-21T20:59:34.158Z,100586.64
2018-09-21T21:02:03.176Z,100586.59
2018-09-21T21:04:32.091Z,100604.05
2018-09-21T21:07:01.005Z,100588.72
2018-09-21T21:09:29.966Z,100581.51
2018-09-21T21:11:58.901Z,100589.36
2018-09-21T21:14:27.822Z,100584.88
2018-09-21T21:16:56.771Z,100589.94
2018-09-21T21:19:25.849Z,100590.38
2018-09-21T21:21:54.997Z,100588.73
2018-09-21T21:24:23.886Z,100600.50
2018-09-21T21:26:52.813Z,100593.80
2018-09-21T21:29:21.725Z,100582.36
2018-09-21T21:31:50.631Z,100584.88
2018-09-21T21:34:19.594Z,100581.20
2018-09-21T21:36:48.545Z,100583.08
2018-09-21T21:39:17.483Z,100575.73
2018-09-21T21:41:46.411Z,100571.20
2018-09-21T21:44:15.335Z,100580.52
2018-09-21T21:46:44.250Z,100579.52
2018-09-21T21:49:13.180Z,100584.25
2018-09-21T21:51:42.098Z,100588.47
2018-09-21T21:54:11.019Z,100597.92
2018-09-21T21:56:40.166Z,100608.35
2018-09-21T21:59:09.065Z,100605.04
2018-09-21T22:01:43.274Z,100619.29
2018-09-21T22:04:12.207Z,100614.23
2018-09-21T22:06:41.143Z,100622.28
2018-09-21T22:09:11.021Z,100623.77
2018-09-21T22:11:45.387Z,100624.66
2018-09-21T22:14:14.903Z,100623.94
2018-09-21T22:16:43.780Z,100626.89
2018-09-21T22:19:12.761Z,100636.44
2018-09-21T22:21:41.692Z,100640.56
2018-09-21T22:24:10.632Z,100639.92
2018-09-21T22:26:39.524Z,100635.40
2018-09-21T22:29:08.441Z,100637.02
2018-09-21T22:31:37.380Z,100634.55
2018-09-21T22:34:06.448Z,100638.70
2018-09-21T22:36:35.354Z,100627.17
2018-09-21T22:39:06.370Z,100634.59
2018-09-21T22:41:35.324Z,100627.08
2018-09-21T22:44:04.418Z,100627.57
2018-09-21T22:46:33.397Z,100614.41
2018-09-21T22:49:03.690Z,100621.25
2018-09-21T22:51:32.589Z,100623.31
2018-09-21T22:54:01.620Z,100624.75
2018-09-21T22:56:30.564Z,100624.69
2018-09-21T22:58:59.495Z,100623.63
2018-09-21T23:01:28.461Z,100621.38
2018-09-21T23:03:57.516Z,100618.97
2018-09-21T23:06:26.503Z,100622.23
2018-09-21T23:08:55.431Z,100618.91
2018-09-21T23:11:24.379Z,100619.42
2018-09-21T23:13:53.252Z,100610.76
2018-09-21T23:16:22.175Z,100619.11
2018-09-21T23:18:51.245Z,100616.24
2018-09-21T23:21:20.139Z,100616.55
2018-09-21T23:23:49.084Z,100636.83
2018-09-21T23:26:17.996Z,100628.88
2018-09-21T23:28:47.119Z,100627.50
2018-09-21T23:31:15.994Z,100626.62
2018-09-21T23:33:44.894Z,100622.58
2018-09-21T23:36:13.873Z,100632.00
2018-09-21T23:38:42.785Z,100638.09
2018-09-21T23:41:11.702Z,100626.55
2018-09-21T23:43:40.627Z,100635.22
2018-09-21T23:46:09.668Z,100644.17
2018-09-21T23:48:38.741Z,100637.67
2018-09-21T23:51:08.483Z,100644.64
2018-09-21T23:53:37.697Z,100652.04
2018-09-21T23:56:06.708Z,100660.61
2018-09-21T23:58:35.611Z,100664.47
